Flight Track Log - Related Links

Times and Time Zones

All times are in EDT time to prevent confusion due to time zone crossing. See the SWA407 flight status page for this flight to view local times or setup timezone preferences in your user account.

Time Position Orientation Groundspeed Altitude Reporting Facility
EDT Latitude Longitude Course Direction KTS MPH feet Rate Location/Type
Tue 03:41:24 PM 28.4333 -81.3000 41° Northeast 153 176 700  Level Orlando TRACON
Tue 03:41:54 PM 28.4500 -81.2833 41° Northeast 168 193 2,100 3,563 Climbing Orlando TRACON
Tue 03:43:00 PM 28.5000 -81.2667 16° North 209 241 6,400 3,158 Climbing Orlando TRACON
Tue 03:43:48 PM 28.5667 -81.2333 24° Northeast 288 331 8,100 1,627 Climbing Orlando TRACON
Tue 03:45:57 PM 28.6994 -81.3092 333° Northwest 285 328 11,200 1,979 Climbing Jacksonville Center
Tue 03:46:56 PM 28.7731 -81.3647 327° Northwest 295 339 14,300 3,176 Climbing Jacksonville Center
Tue 03:47:56 PM 28.8553 -81.4275 326° Northwest 329 379 17,500 3,150 Climbing Jacksonville Center
Tue 03:48:56 PM 28.9536 -81.4594 344° North 344 396 20,600 3,223 Climbing Jacksonville Center
Tue 03:49:57 PM 29.0564 -81.4958 343° North 369 425 24,000 3,100 Climbing Jacksonville Center
Tue 03:50:56 PM 29.1611 -81.5300 344° North 381 438 26,800 2,471 Climbing Jacksonville Center
Tue 03:51:56 PM 29.2556 -81.5644 342° North 386 444 28,900 2,331 Climbing Jacksonville Center
Tue 03:52:57 PM 29.3622 -81.6036 342° North 391 450 31,500 2,350 Climbing Jacksonville Center
Tue 03:53:56 PM 29.4733 -81.6378 345° North 396 456 33,600 1,750 Climbing Jacksonville Center
Tue 03:54:57 PM 29.5800 -81.6747 343° North 402 463 35,000 694 Climbing Jacksonville Center
Tue 03:55:57 PM 29.6869 -81.7117 343° North 402 463 35,000  Level Jacksonville Center
Tue 03:56:56 PM 29.7958 -81.7486 344° North 407 468 35,000  Level Jacksonville Center
Tue 03:57:57 PM 29.9047 -81.7881 343° North 407 468 35,000  Level Jacksonville Center
Tue 03:58:56 PM 30.0156 -81.8250 344° North 401 461 35,000  Level Jacksonville Center
Tue 03:59:56 PM 30.1244 -81.8575 346° North 401 461 35,000  Level Jacksonville Center
Tue 04:00:56 PM 30.2375 -81.8900 346° North 401 461 35,000  Level Jacksonville Center
Tue 04:01:56 PM 30.3564 -81.8694 North 412 474 35,000  Level Jacksonville Center
Tue 04:02:56 PM 30.4753 -81.8514 North 417 480 35,000  Level Jacksonville Center
Tue 04:03:57 PM 30.6086 -81.8378 North 432 497 35,000  Level Jacksonville Center
Tue 04:04:56 PM 30.7278 -81.8244 North 432 497 35,000  Level Jacksonville Center
Tue 04:05:57 PM 30.8325 -81.8717 339° North 401 461 35,000  Level Jacksonville Center
Tue 04:06:57 PM 30.9083 -81.9675 313° West 384 442 35,000  Level Jacksonville Center
Tue 04:07:56 PM 30.9819 -82.0639 312° West 389 448 35,000  Level Jacksonville Center
Tue 04:08:57 PM 31.0642 -82.1503 318° Northwest 389 448 35,000  Level Jacksonville Center
Tue 04:09:57 PM 31.1564 -82.2225 326° Northwest 394 453 35,000  Level Jacksonville Center
Tue 04:11:41 PM 31.3483 -82.2981 341° North 417 480 35,000  Level Atlanta Center
Tue 04:12:41 PM 31.4594 -82.3444 340° North 417 480 35,000  Level Atlanta Center
Tue 04:13:41 PM 31.5708 -82.3936 339° North 423 487 35,000  Level Atlanta Center
Tue 04:14:41 PM 31.6800 -82.4428 339° North 423 487 35,000  Level Atlanta Center
Tue 04:15:41 PM 31.7892 -82.4897 340° North 418 481 35,000  Level Atlanta Center
Tue 04:16:41 PM 31.9003 -82.5369 340° North 418 481 35,000  Level Atlanta Center
Tue 04:17:41 PM 32.0072 -82.5864 339° North 418 481 35,000  Level Atlanta Center
Tue 04:18:41 PM 32.1164 -82.6386 338° Northwest 418 481 35,000 -850 Level Atlanta Center
Tue 04:19:41 PM 32.2008 -82.7233 320° Northwest 402 463 33,300 -1,400 Descending Atlanta Center
Tue 04:20:41 PM 32.2831 -82.8128 317° Northwest 402 463 32,200 -1,050 Descending Atlanta Center
Tue 04:21:41 PM 32.3675 -82.9028 318° Northwest 402 463 31,200 -1,050 Descending Atlanta Center
Tue 04:22:41 PM 32.4539 -82.9928 319° Northwest 407 468 30,100 -1,100 Descending Atlanta Center
Tue 04:23:41 PM 32.5422 -83.0853 319° Northwest 413 475 29,000 -1,050 Descending Atlanta Center
Tue 04:24:41 PM 32.6244 -83.1756 317° Northwest 413 475 28,000 -1,067 Descending Atlanta Center
Tue 04:26:00 PM 32.7179 -83.2894 314° West  Level Estimated
Tue 04:26:41 PM 32.8050 -83.3667 314° West 425 489 25,800  Level Atlanta Center
Tue 04:27:41 PM 32.8850 -83.4550 317° Northwest 412 474 24,500 -1,650 Descending Atlanta Center
Tue 04:28:41 PM 32.9644 -83.5411 318° Northwest 394 453 22,500 -2,200 Descending Atlanta Center
Tue 04:29:41 PM 33.0422 -83.6225 319° Northwest 383 441 20,100 -2,600 Descending Atlanta Center
Tue 04:30:41 PM 33.1111 -83.6942 319° Northwest 364 419 17,300 -2,721 Descending Atlanta Center
Tue 04:31:07 PM 33.1500 -83.7333 320° Northwest 367 422 16,200 -2,302 Descending Atlanta TRACON
Tue 04:32:07 PM 33.2167 -83.8167 314° West 354 407 14,000 -1,100 Descending Atlanta TRACON
Tue 04:33:07 PM 33.2833 -83.9000 314° West 333 383 14,000 -319 Level Atlanta TRACON
Tue 04:33:41 PM 33.3078 -83.9469 302° West 339 390 13,500 -957 Descending Atlanta Center
Tue 04:34:41 PM 33.3706 -84.0414 309° West 333 383 12,500 -750 Descending Atlanta Center
Tue 04:35:41 PM 33.4206 -84.1233 306° West 322 371 12,000 -375 Descending Atlanta Center
Tue 04:36:01 PM 33.4333 -84.1500 300° West 268 308 12,000  Level Atlanta TRACON
Tue 04:37:07 PM 33.4833 -84.2167 312° West 231 266 12,000  Level Atlanta TRACON
Tue 04:38:01 PM 33.5167 -84.2667 309° West 231 266 12,000 -579 Level Atlanta TRACON
Tue 04:39:01 PM 33.5500 -84.3333 301° West 238 274 10,900 -1,143 Descending Atlanta TRACON
Tue 04:40:07 PM 33.5500 -84.4167 270° West 240 276 9,600 -1,190 Descending Atlanta TRACON
Tue 04:41:07 PM 33.5500 -84.5000 270° West 233 268 8,400 -1,100 Descending Atlanta TRACON
Tue 04:42:07 PM 33.5500 -84.5667 270° West 222 255 7,400 -1,200 Descending Atlanta TRACON
Tue 04:43:07 PM 33.5500 -84.6500 270° West 228 262 6,000 -1,200 Descending Atlanta TRACON
Tue 04:44:07 PM 33.6000 -84.6667 344° North 237 273 5,000 -895 Descending Atlanta TRACON
Tue 04:45:01 PM 33.6333 -84.6167 51° Northeast 185 213 4,300 -1,000 Descending Atlanta TRACON
Tue 04:46:01 PM 33.6333 -84.5500 90° East 184 212 3,100 -1,143 Descending Atlanta TRACON
Tue 04:47:07 PM 33.6333 -84.5000 90° East 150 173 1,900 -1,091 Descending Atlanta TRACON
Tue 04:49:00 PM 33.6367 -84.4279 64° Northeast  Level Estimated
Tue 04:56:00 PM 33.6367 -84.4279 64° Northeast  Level Estimated

Login

Don't have an account? Register now (free) for customized features, flight alerts, and more!